sensor_id;sensor_type;location;lat;lon;timestamp;temperature;humidity
9006;DHT22;62284;50.702;7.140;2022-10-31T00:01:26;13.20;99.90
9006;DHT22;62284;50.702;7.140;2022-10-31T00:03:53;13.20;99.90
9006;DHT22;62284;50.702;7.140;2022-10-31T00:06:20;13.20;99.90
9006;DHT22;62284;50.702;7.140;2022-10-31T00:08:52;13.20;99.90
9006;DHT22;62284;50.702;7.140;2022-10-31T00:11:19;13.20;99.90
9006;DHT22;62284;50.702;7.140;2022-10-31T00:13:45;13.20;99.90
9006;DHT22;62284;50.702;7.140;2022-10-31T00:16:18;13.10;99.90
9006;DHT22;62284;50.702;7.140;2022-10-31T00:18:48;13.20;99.90
9006;DHT22;62284;50.702;7.140;2022-10-31T00:21:15;13.10;99.90
9006;DHT22;62284;50.702;7.140;2022-10-31T00:23:41;13.00;99.90
9006;DHT22;62284;50.702;7.140;2022-10-31T00:26:08;12.90;99.90
9006;DHT22;62284;50.702;7.140;2022-10-31T00:28:35;13.00;99.90
9006;DHT22;62284;50.702;7.140;2022-10-31T00:31:04;13.00;99.90
9006;DHT22;62284;50.702;7.140;2022-10-31T00:33:33;13.00;99.90
9006;DHT22;62284;50.702;7.140;2022-10-31T00:36:00;13.00;99.90
9006;DHT22;62284;50.702;7.140;2022-10-31T00:38:27;13.00;99.90
9006;DHT22;62284;50.702;7.140;2022-10-31T00:40:54;13.10;99.90
9006;DHT22;62284;50.702;7.140;2022-10-31T00:43:21;13.10;99.90
9006;DHT22;62284;50.702;7.140;2022-10-31T00:45:48;13.10;99.90
9006;DHT22;62284;50.702;7.140;2022-10-31T00:48:15;13.10;99.90
9006;DHT22;62284;50.702;7.140;2022-10-31T00:50:43;13.00;99.90
9006;DHT22;62284;50.702;7.140;2022-10-31T00:53:10;13.00;99.90
9006;DHT22;62284;50.702;7.140;2022-10-31T00:55:37;13.00;99.90
9006;DHT22;62284;50.702;7.140;2022-10-31T00:58:04;13.00;99.90
9006;DHT22;62284;50.702;7.140;2022-10-31T01:00:30;13.10;99.90
9006;DHT22;62284;50.702;7.140;2022-10-31T01:02:57;13.10;99.90
9006;DHT22;62284;50.702;7.140;2022-10-31T01:05:24;13.10;99.90
9006;DHT22;62284;50.702;7.140;2022-10-31T01:07:52;13.20;99.90
9006;DHT22;62284;50.702;7.140;2022-10-31T01:10:19;13.30;99.90
9006;DHT22;62284;50.702;7.140;2022-10-31T01:12:48;13.30;99.90
9006;DHT22;62284;50.702;7.140;2022-10-31T01:15:18;13.30;99.90
9006;DHT22;62284;50.702;7.140;2022-10-31T01:17:45;13.30;99.90
9006;DHT22;62284;50.702;7.140;2022-10-31T01:20:13;13.20;99.90
9006;DHT22;62284;50.702;7.140;2022-10-31T01:22:40;13.10;99.90
9006;DHT22;62284;50.702;7.140;2022-10-31T01:25:09;13.10;99.90
9006;DHT22;62284;50.702;7.140;2022-10-31T01:27:36;13.10;99.90
9006;DHT22;62284;50.702;7.140;2022-10-31T01:30:04;13.20;99.90
9006;DHT22;62284;50.702;7.140;2022-10-31T01:32:31;13.10;99.90
9006;DHT22;62284;50.702;7.140;2022-10-31T01:34:58;13.20;99.90
9006;DHT22;62284;50.702;7.140;2022-10-31T01:37:24;13.10;99.90
9006;DHT22;62284;50.702;7.140;2022-10-31T01:39:51;13.20;99.90
9006;DHT22;62284;50.702;7.140;2022-10-31T01:42:21;13.10;99.90
9006;DHT22;62284;50.702;7.140;2022-10-31T01:44:55;13.20;99.90
9006;DHT22;62284;50.702;7.140;2022-10-31T01:47:32;13.20;99.90
9006;DHT22;62284;50.702;7.140;2022-10-31T01:50:03;13.00;99.90
9006;DHT22;62284;50.702;7.140;2022-10-31T01:52:32;12.90;99.90
9006;DHT22;62284;50.702;7.140;2022-10-31T01:55:06;12.90;99.90
9006;DHT22;62284;50.702;7.140;2022-10-31T01:57:38;13.00;99.90
9006;DHT22;62284;50.702;7.140;2022-10-31T02:00:08;13.00;99.90
9006;DHT22;62284;50.702;7.140;2022-10-31T02:02:36;13.00;99.90
9006;DHT22;62284;50.702;7.140;2022-10-31T02:05:06;13.00;99.90
9006;DHT22;62284;50.702;7.140;2022-10-31T02:07:39;13.00;99.90
9006;DHT22;62284;50.702;7.140;2022-10-31T02:10:07;13.00;99.90
9006;DHT22;62284;50.702;7.140;2022-10-31T02:12:35;13.00;99.90
9006;DHT22;62284;50.702;7.140;2022-10-31T02:15:04;13.00;99.90
9006;DHT22;62284;50.702;7.140;2022-10-31T02:17:32;12.90;99.90
9006;DHT22;62284;50.702;7.140;2022-10-31T02:20:05;13.00;99.90
9006;DHT22;62284;50.702;7.140;2022-10-31T02:22:40;13.10;99.90
9006;DHT22;62284;50.702;7.140;2022-10-31T02:25:42;13.20;99.90
9006;DHT22;62284;50.702;7.140;2022-10-31T02:28:30;13.20;99.90
9006;DHT22;62284;50.702;7.140;2022-10-31T02:31:17;13.10;99.90
9006;DHT22;62284;50.702;7.140;2022-10-31T02:33:51;13.10;99.90
9006;DHT22;62284;50.702;7.140;2022-10-31T02:36:24;13.00;99.90
9006;DHT22;62284;50.702;7.140;2022-10-31T02:38:59;13.10;99.90
9006;DHT22;62284;50.702;7.140;2022-10-31T02:41:32;13.10;99.90
9006;DHT22;62284;50.702;7.140;2022-10-31T02:44:07;13.10;99.90
9006;DHT22;62284;50.702;7.140;2022-10-31T02:46:39;13.10;99.90
9006;DHT22;62284;50.702;7.140;2022-10-31T02:49:15;13.00;99.90
9006;DHT22;62284;50.702;7.140;2022-10-31T02:51:45;13.00;99.90
9006;DHT22;62284;50.702;7.140;2022-10-31T02:54:19;13.10;99.90
9006;DHT22;62284;50.702;7.140;2022-10-31T02:56:49;13.10;99.90
9006;DHT22;62284;50.702;7.140;2022-10-31T02:59:17;13.10;99.90
9006;DHT22;62284;50.702;7.140;2022-10-31T03:02:00;13.00;99.90
9006;DHT22;62284;50.702;7.140;2022-10-31T03:04:59;13.00;99.90
9006;DHT22;62284;50.702;7.140;2022-10-31T03:07:34;13.00;99.90
9006;DHT22;62284;50.702;7.140;2022-10-31T03:10:06;12.90;99.90
9006;DHT22;62284;50.702;7.140;2022-10-31T03:12:39;12.90;99.90
9006;DHT22;62284;50.702;7.140;2022-10-31T03:15:13;13.00;99.90
9006;DHT22;62284;50.702;7.140;2022-10-31T03:17:51;13.10;99.90
9006;DHT22;62284;50.702;7.140;2022-10-31T03:20:22;13.10;99.90
9006;DHT22;62284;50.702;7.140;2022-10-31T03:22:51;13.10;99.90
9006;DHT22;62284;50.702;7.140;2022-10-31T03:25:19;13.20;99.90
9006;DHT22;62284;50.702;7.140;2022-10-31T03:27:46;13.20;99.90
9006;DHT22;62284;50.702;7.140;2022-10-31T03:30:14;13.10;99.90
9006;DHT22;62284;50.702;7.140;2022-10-31T03:32:46;13.10;99.90
9006;DHT22;62284;50.702;7.140;2022-10-31T03:35:16;13.10;99.90
9006;DHT22;62284;50.702;7.140;2022-10-31T03:37:44;13.20;99.90
9006;DHT22;62284;50.702;7.140;2022-10-31T03:40:12;13.20;99.90
9006;DHT22;62284;50.702;7.140;2022-10-31T03:42:44;13.20;99.90
9006;DHT22;62284;50.702;7.140;2022-10-31T03:45:15;13.20;99.90
9006;DHT22;62284;50.702;7.140;2022-10-31T03:47:47;13.10;99.90
9006;DHT22;62284;50.702;7.140;2022-10-31T03:50:15;13.10;99.90
9006;DHT22;62284;50.702;7.140;2022-10-31T03:52:45;13.10;99.90
9006;DHT22;62284;50.702;7.140;2022-10-31T03:55:17;13.00;99.90
9006;DHT22;62284;50.702;7.140;2022-10-31T03:57:51;13.10;99.90
9006;DHT22;62284;50.702;7.140;2022-10-31T04:00:19;13.10;99.90
9006;DHT22;62284;50.702;7.140;2022-10-31T04:02:55;13.20;99.90
9006;DHT22;62284;50.702;7.140;2022-10-31T04:05:24;13.20;99.90
9006;DHT22;62284;50.702;7.140;2022-10-31T04:07:54;13.10;99.90
9006;DHT22;62284;50.702;7.140;2022-10-31T04:10:23;13.10;99.90
9006;DHT22;62284;50.702;7.140;2022-10-31T04:12:55;13.00;99.90
9006;DHT22;62284;50.702;7.140;2022-10-31T04:15:24;13.00;99.90
9006;DHT22;62284;50.702;7.140;2022-10-31T04:17:56;13.00;99.90
9006;DHT22;62284;50.702;7.140;2022-10-31T04:20:31;13.00;99.90
9006;DHT22;62284;50.702;7.140;2022-10-31T04:22:58;13.00;99.90
9006;DHT22;62284;50.702;7.140;2022-10-31T04:25:25;12.90;99.90
9006;DHT22;62284;50.702;7.140;2022-10-31T04:27:52;12.80;99.90
9006;DHT22;62284;50.702;7.140;2022-10-31T04:30:19;12.80;99.90
9006;DHT22;62284;50.702;7.140;2022-10-31T04:32:45;12.70;99.90
9006;DHT22;62284;50.702;7.140;2022-10-31T04:35:14;12.70;99.90
9006;DHT22;62284;50.702;7.140;2022-10-31T04:37:41;12.50;99.90
9006;DHT22;62284;50.702;7.140;2022-10-31T04:40:09;12.50;99.90
9006;DHT22;62284;50.702;7.140;2022-10-31T04:42:36;12.50;99.90
9006;DHT22;62284;50.702;7.140;2022-10-31T04:45:04;12.50;99.90
9006;DHT22;62284;50.702;7.140;2022-10-31T04:47:31;12.50;99.90
9006;DHT22;62284;50.702;7.140;2022-10-31T04:49:58;12.50;99.90
9006;DHT22;62284;50.702;7.140;2022-10-31T04:52:27;12.60;99.90
9006;DHT22;62284;50.702;7.140;2022-10-31T04:54:54;12.60;99.90
9006;DHT22;62284;50.702;7.140;2022-10-31T04:57:20;12.50;99.90
9006;DHT22;62284;50.702;7.140;2022-10-31T04:59:47;12.50;99.90
9006;DHT22;62284;50.702;7.140;2022-10-31T05:02:14;12.50;99.90
9006;DHT22;62284;50.702;7.140;2022-10-31T05:04:41;12.50;99.90
9006;DHT22;62284;50.702;7.140;2022-10-31T05:07:08;12.50;99.90
9006;DHT22;62284;50.702;7.140;2022-10-31T05:09:37;12.40;99.90
9006;DHT22;62284;50.702;7.140;2022-10-31T05:12:04;12.40;99.90
9006;DHT22;62284;50.702;7.140;2022-10-31T05:14:31;12.50;99.90
9006;DHT22;62284;50.702;7.140;2022-10-31T05:16:58;12.50;99.90
9006;DHT22;62284;50.702;7.140;2022-10-31T05:19:24;12.50;99.90
9006;DHT22;62284;50.702;7.140;2022-10-31T05:21:51;12.50;99.90
9006;DHT22;62284;50.702;7.140;2022-10-31T05:24:18;12.50;99.90
9006;DHT22;62284;50.702;7.140;2022-10-31T05:26:49;12.50;99.90
9006;DHT22;62284;50.702;7.140;2022-10-31T05:29:15;12.50;99.90
9006;DHT22;62284;50.702;7.140;2022-10-31T05:31:42;12.60;99.90
9006;DHT22;62284;50.702;7.140;2022-10-31T05:34:09;12.40;99.90
9006;DHT22;62284;50.702;7.140;2022-10-31T05:36:36;12.40;99.90
9006;DHT22;62284;50.702;7.140;2022-10-31T05:39:03;12.40;99.90
9006;DHT22;62284;50.702;7.140;2022-10-31T05:41:30;12.40;99.90
9006;DHT22;62284;50.702;7.140;2022-10-31T05:43:58;12.30;99.90
9006;DHT22;62284;50.702;7.140;2022-10-31T05:46:25;12.30;99.90
9006;DHT22;62284;50.702;7.140;2022-10-31T05:48:51;12.20;99.90
9006;DHT22;62284;50.702;7.140;2022-10-31T05:51:18;12.20;99.90
9006;DHT22;62284;50.702;7.140;2022-10-31T05:53:46;12.20;99.90
9006;DHT22;62284;50.702;7.140;2022-10-31T05:56:13;12.20;99.90
9006;DHT22;62284;50.702;7.140;2022-10-31T05:58:40;12.20;99.90
9006;DHT22;62284;50.702;7.140;2022-10-31T06:01:08;12.20;99.90
9006;DHT22;62284;50.702;7.140;2022-10-31T06:03:35;12.20;99.90
9006;DHT22;62284;50.702;7.140;2022-10-31T06:06:02;12.20;99.90
9006;DHT22;62284;50.702;7.140;2022-10-31T06:08:29;12.20;99.90
9006;DHT22;62284;50.702;7.140;2022-10-31T06:10:56;12.30;99.90
9006;DHT22;62284;50.702;7.140;2022-10-31T06:13:23;12.30;99.90
9006;DHT22;62284;50.702;7.140;2022-10-31T06:15:50;12.30;99.90
9006;DHT22;62284;50.702;7.140;2022-10-31T06:18:18;12.30;99.90
9006;DHT22;62284;50.702;7.140;2022-10-31T06:20:45;12.20;99.90
9006;DHT22;62284;50.702;7.140;2022-10-31T06:23:12;12.20;99.90
9006;DHT22;62284;50.702;7.140;2022-10-31T06:25:38;12.20;99.90
9006;DHT22;62284;50.702;7.140;2022-10-31T06:28:05;12.30;99.90
9006;DHT22;62284;50.702;7.140;2022-10-31T06:30:32;12.30;99.90
9006;DHT22;62284;50.702;7.140;2022-10-31T06:33:02;12.40;99.90
9006;DHT22;62284;50.702;7.140;2022-10-31T06:35:31;12.50;99.90
9006;DHT22;62284;50.702;7.140;2022-10-31T06:37:58;12.50;99.90
9006;DHT22;62284;50.702;7.140;2022-10-31T06:40:24;12.50;99.90
9006;DHT22;62284;50.702;7.140;2022-10-31T06:42:58;12.50;99.90
9006;DHT22;62284;50.702;7.140;2022-10-31T06:45:26;12.60;99.90
9006;DHT22;62284;50.702;7.140;2022-10-31T06:47:54;12.70;99.90
9006;DHT22;62284;50.702;7.140;2022-10-31T06:50:21;12.80;99.90
9006;DHT22;62284;50.702;7.140;2022-10-31T06:52:53;12.80;99.90
9006;DHT22;62284;50.702;7.140;2022-10-31T06:55:21;12.80;99.90
9006;DHT22;62284;50.702;7.140;2022-10-31T06:57:51;12.80;99.90
9006;DHT22;62284;50.702;7.140;2022-10-31T07:00:19;12.90;99.90
9006;DHT22;62284;50.702;7.140;2022-10-31T07:02:53;13.00;99.90
9006;DHT22;62284;50.702;7.140;2022-10-31T07:05:20;13.00;99.90
9006;DHT22;62284;50.702;7.140;2022-10-31T07:07:47;13.00;99.90
9006;DHT22;62284;50.702;7.140;2022-10-31T07:10:15;13.10;99.90
9006;DHT22;62284;50.702;7.140;2022-10-31T07:12:42;13.10;99.90
9006;DHT22;62284;50.702;7.140;2022-10-31T07:15:09;13.10;99.90
9006;DHT22;62284;50.702;7.140;2022-10-31T07:17:36;13.10;99.90
9006;DHT22;62284;50.702;7.140;2022-10-31T07:20:04;13.20;99.90
9006;DHT22;62284;50.702;7.140;2022-10-31T07:22:35;13.20;99.90
9006;DHT22;62284;50.702;7.140;2022-10-31T07:25:02;13.30;99.90
9006;DHT22;62284;50.702;7.140;2022-10-31T07:27:35;13.40;99.90
9006;DHT22;62284;50.702;7.140;2022-10-31T07:30:03;13.50;99.90
9006;DHT22;62284;50.702;7.140;2022-10-31T07:32:37;13.50;99.90
9006;DHT22;62284;50.702;7.140;2022-10-31T07:35:04;13.50;99.90
9006;DHT22;62284;50.702;7.140;2022-10-31T07:37:31;13.50;99.90
9006;DHT22;62284;50.702;7.140;2022-10-31T07:39:58;13.60;99.90
9006;DHT22;62284;50.702;7.140;2022-10-31T07:42:25;13.70;99.90
9006;DHT22;62284;50.702;7.140;2022-10-31T07:44:53;13.70;99.90
9006;DHT22;62284;50.702;7.140;2022-10-31T07:47:20;13.80;99.90
9006;DHT22;62284;50.702;7.140;2022-10-31T07:49:47;13.90;99.90
9006;DHT22;62284;50.702;7.140;2022-10-31T07:52:13;14.00;99.90
9006;DHT22;62284;50.702;7.140;2022-10-31T07:54:40;14.00;99.90
9006;DHT22;62284;50.702;7.140;2022-10-31T07:57:07;14.00;99.90
9006;DHT22;62284;50.702;7.140;2022-10-31T07:59:34;14.00;99.90
9006;DHT22;62284;50.702;7.140;2022-10-31T08:02:02;14.00;99.90
9006;DHT22;62284;50.702;7.140;2022-10-31T08:04:29;14.10;99.90
9006;DHT22;62284;50.702;7.140;2022-10-31T08:06:56;14.20;99.90
9006;DHT22;62284;50.702;7.140;2022-10-31T08:09:23;14.20;99.90
9006;DHT22;62284;50.702;7.140;2022-10-31T08:11:50;14.30;99.90
9006;DHT22;62284;50.702;7.140;2022-10-31T08:14:17;14.40;99.90
9006;DHT22;62284;50.702;7.140;2022-10-31T08:16:44;14.50;99.90
9006;DHT22;62284;50.702;7.140;2022-10-31T08:19:12;14.50;99.90
9006;DHT22;62284;50.702;7.140;2022-10-31T08:21:39;14.60;99.90
9006;DHT22;62284;50.702;7.140;2022-10-31T08:24:06;14.60;99.90
9006;DHT22;62284;50.702;7.140;2022-10-31T08:26:33;14.60;99.90
9006;DHT22;62284;50.702;7.140;2022-10-31T08:29:00;14.60;99.90
9006;DHT22;62284;50.702;7.140;2022-10-31T08:31:28;14.70;99.90
9006;DHT22;62284;50.702;7.140;2022-10-31T08:33:55;14.80;99.90
9006;DHT22;62284;50.702;7.140;2022-10-31T08:36:23;14.80;99.90
9006;DHT22;62284;50.702;7.140;2022-10-31T08:38:50;14.80;99.90
9006;DHT22;62284;50.702;7.140;2022-10-31T08:41:17;14.80;99.90
9006;DHT22;62284;50.702;7.140;2022-10-31T08:43:44;14.80;99.90
9006;DHT22;62284;50.702;7.140;2022-10-31T08:46:11;14.80;99.90
9006;DHT22;62284;50.702;7.140;2022-10-31T08:48:38;14.90;99.90
9006;DHT22;62284;50.702;7.140;2022-10-31T08:51:05;14.90;99.90
9006;DHT22;62284;50.702;7.140;2022-10-31T08:53:33;15.00;99.90
9006;DHT22;62284;50.702;7.140;2022-10-31T08:56:00;15.10;99.90
9006;DHT22;62284;50.702;7.140;2022-10-31T08:58:27;15.20;99.90
9006;DHT22;62284;50.702;7.140;2022-10-31T09:00:54;15.20;99.90
9006;DHT22;62284;50.702;7.140;2022-10-31T09:03:24;15.40;99.90
9006;DHT22;62284;50.702;7.140;2022-10-31T09:05:54;15.50;99.90
9006;DHT22;62284;50.702;7.140;2022-10-31T09:08:22;15.40;99.90
9006;DHT22;62284;50.702;7.140;2022-10-31T09:10:51;15.50;99.90
9006;DHT22;62284;50.702;7.140;2022-10-31T09:13:19;15.70;99.90
9006;DHT22;62284;50.702;7.140;2022-10-31T09:15:47;15.80;99.90
9006;DHT22;62284;50.702;7.140;2022-10-31T09:18:16;15.90;99.90
9006;DHT22;62284;50.702;7.140;2022-10-31T09:20:44;16.10;99.90
9006;DHT22;62284;50.702;7.140;2022-10-31T09:23:13;16.20;99.90
9006;DHT22;62284;50.702;7.140;2022-10-31T09:25:40;16.40;99.90
9006;DHT22;62284;50.702;7.140;2022-10-31T09:28:11;16.60;99.90
9006;DHT22;62284;50.702;7.140;2022-10-31T09:30:38;16.80;99.90
9006;DHT22;62284;50.702;7.140;2022-10-31T09:33:08;16.90;99.90
9006;DHT22;62284;50.702;7.140;2022-10-31T09:35:36;17.00;99.90
9006;DHT22;62284;50.702;7.140;2022-10-31T09:38:05;17.20;99.90
9006;DHT22;62284;50.702;7.140;2022-10-31T09:40:35;17.50;99.90
9006;DHT22;62284;50.702;7.140;2022-10-31T09:43:11;17.70;99.90
9006;DHT22;62284;50.702;7.140;2022-10-31T09:45:44;17.90;99.90
9006;DHT22;62284;50.702;7.140;2022-10-31T09:48:36;18.00;99.90
9006;DHT22;62284;50.702;7.140;2022-10-31T09:51:06;18.20;99.90
9006;DHT22;62284;50.702;7.140;2022-10-31T09:53:39;18.00;99.90
9006;DHT22;62284;50.702;7.140;2022-10-31T09:56:11;18.20;99.90
9006;DHT22;62284;50.702;7.140;2022-10-31T09:58:43;18.50;99.90
9006;DHT22;62284;50.702;7.140;2022-10-31T10:04:14;19.30;98.80
9006;DHT22;62284;50.702;7.140;2022-10-31T10:06:47;19.90;97.40
9006;DHT22;62284;50.702;7.140;2022-10-31T10:09:15;20.00;96.80
9006;DHT22;62284;50.702;7.140;2022-10-31T10:11:51;20.10;96.60
9006;DHT22;62284;50.702;7.140;2022-10-31T10:14:39;20.10;95.90
9006;DHT22;62284;50.702;7.140;2022-10-31T10:17:22;20.00;95.80
9006;DHT22;62284;50.702;7.140;2022-10-31T10:20:18;19.60;96.40
9006;DHT22;62284;50.702;7.140;2022-10-31T10:22:55;19.50;96.50
9006;DHT22;62284;50.702;7.140;2022-10-31T10:25:25;19.20;98.10
9006;DHT22;62284;50.702;7.140;2022-10-31T10:28:06;19.00;98.60
9006;DHT22;62284;50.702;7.140;2022-10-31T10:30:39;19.10;98.20
9006;DHT22;62284;50.702;7.140;2022-10-31T10:33:10;19.20;98.10
9006;DHT22;62284;50.702;7.140;2022-10-31T10:35:41;19.30;98.10
9006;DHT22;62284;50.702;7.140;2022-10-31T10:38:16;19.60;97.80
9006;DHT22;62284;50.702;7.140;2022-10-31T10:40:44;20.00;97.30
9006;DHT22;62284;50.702;7.140;2022-10-31T10:43:21;20.30;96.60
9006;DHT22;62284;50.702;7.140;2022-10-31T10:45:55;20.50;96.20
9006;DHT22;62284;50.702;7.140;2022-10-31T10:48:43;20.50;96.00
9006;DHT22;62284;50.702;7.140;2022-10-31T10:51:20;20.60;96.20
9006;DHT22;62284;50.702;7.140;2022-10-31T10:54:01;20.50;95.90
9006;DHT22;62284;50.702;7.140;2022-10-31T10:56:40;20.70;95.80
9006;DHT22;62284;50.702;7.140;2022-10-31T10:59:13;20.70;95.50
9006;DHT22;62284;50.702;7.140;2022-10-31T11:01:41;20.60;95.50
9006;DHT22;62284;50.702;7.140;2022-10-31T11:04:28;20.60;95.90
9006;DHT22;62284;50.702;7.140;2022-10-31T11:07:02;20.80;95.20
9006;DHT22;62284;50.702;7.140;2022-10-31T11:09:29;20.90;95.70
9006;DHT22;62284;50.702;7.140;2022-10-31T11:11:57;21.10;95.40
9006;DHT22;62284;50.702;7.140;2022-10-31T11:14:25;21.10;95.00
9006;DHT22;62284;50.702;7.140;2022-10-31T11:17:07;21.10;94.70
9006;DHT22;62284;50.702;7.140;2022-10-31T11:19:36;21.10;94.60
9006;DHT22;62284;50.702;7.140;2022-10-31T11:22:07;20.90;94.80
9006;DHT22;62284;50.702;7.140;2022-10-31T11:24:39;21.00;95.00
9006;DHT22;62284;50.702;7.140;2022-10-31T11:27:15;21.10;95.10
9006;DHT22;62284;50.702;7.140;2022-10-31T11:29:42;21.20;94.50
9006;DHT22;62284;50.702;7.140;2022-10-31T11:32:18;21.10;94.50
9006;DHT22;62284;50.702;7.140;2022-10-31T11:34:47;21.40;93.50
9006;DHT22;62284;50.702;7.140;2022-10-31T11:37:18;21.50;93.80
9006;DHT22;62284;50.702;7.140;2022-10-31T11:39:46;21.70;93.40
9006;DHT22;62284;50.702;7.140;2022-10-31T11:42:20;21.80;92.70
9006;DHT22;62284;50.702;7.140;2022-10-31T11:44:48;22.10;92.70
9006;DHT22;62284;50.702;7.140;2022-10-31T11:47:29;22.00;92.50
9006;DHT22;62284;50.702;7.140;2022-10-31T11:50:02;22.20;92.20
9006;DHT22;62284;50.702;7.140;2022-10-31T11:52:31;22.60;91.10
9006;DHT22;62284;50.702;7.140;2022-10-31T11:55:01;22.80;90.80
9006;DHT22;62284;50.702;7.140;2022-10-31T11:57:41;22.90;90.40
9006;DHT22;62284;50.702;7.140;2022-10-31T12:00:21;23.10;89.60
9006;DHT22;62284;50.702;7.140;2022-10-31T12:02:50;23.10;87.30
9006;DHT22;62284;50.702;7.140;2022-10-31T12:05:19;23.20;88.60
9006;DHT22;62284;50.702;7.140;2022-10-31T12:07:48;23.30;87.80
9006;DHT22;62284;50.702;7.140;2022-10-31T12:10:15;23.10;87.90
9006;DHT22;62284;50.702;7.140;2022-10-31T12:12:53;23.10;88.00
9006;DHT22;62284;50.702;7.140;2022-10-31T12:15:30;23.10;88.50
9006;DHT22;62284;50.702;7.140;2022-10-31T12:18:17;23.00;85.20
9006;DHT22;62284;50.702;7.140;2022-10-31T12:20:56;23.00;84.30
9006;DHT22;62284;50.702;7.140;2022-10-31T12:23:37;22.80;84.70
9006;DHT22;62284;50.702;7.140;2022-10-31T12:26:14;22.90;84.30
9006;DHT22;62284;50.702;7.140;2022-10-31T12:28:54;22.70;86.60
9006;DHT22;62284;50.702;7.140;2022-10-31T12:31:46;23.00;83.20
9006;DHT22;62284;50.702;7.140;2022-10-31T12:34:38;23.00;82.00
9006;DHT22;62284;50.702;7.140;2022-10-31T12:37:12;22.50;83.30
9006;DHT22;62284;50.702;7.140;2022-10-31T12:39:47;22.10;87.10
9006;DHT22;62284;50.702;7.140;2022-10-31T12:42:26;22.10;86.70
9006;DHT22;62284;50.702;7.140;2022-10-31T12:45:12;21.60;87.40
9006;DHT22;62284;50.702;7.140;2022-10-31T12:47:56;21.30;88.80
9006;DHT22;62284;50.702;7.140;2022-10-31T12:50:39;21.00;90.20
9006;DHT22;62284;50.702;7.140;2022-10-31T12:53:19;20.70;91.40
9006;DHT22;62284;50.702;7.140;2022-10-31T12:55:59;20.60;91.50
9006;DHT22;62284;50.702;7.140;2022-10-31T12:58:32;20.40;91.90
9006;DHT22;62284;50.702;7.140;2022-10-31T13:01:06;20.20;92.30
9006;DHT22;62284;50.702;7.140;2022-10-31T13:03:40;20.30;92.80
9006;DHT22;62284;50.702;7.140;2022-10-31T13:06:18;20.10;93.10
9006;DHT22;62284;50.702;7.140;2022-10-31T13:08:49;20.00;93.90
9006;DHT22;62284;50.702;7.140;2022-10-31T13:11:21;20.00;94.10
9006;DHT22;62284;50.702;7.140;2022-10-31T13:13:59;20.00;93.90
9006;DHT22;62284;50.702;7.140;2022-10-31T13:16:30;20.00;94.10
9006;DHT22;62284;50.702;7.140;2022-10-31T13:19:02;20.00;94.30
9006;DHT22;62284;50.702;7.140;2022-10-31T13:21:36;20.10;93.60
9006;DHT22;62284;50.702;7.140;2022-10-31T13:24:09;20.30;94.00
9006;DHT22;62284;50.702;7.140;2022-10-31T13:26:41;20.50;93.30
9006;DHT22;62284;50.702;7.140;2022-10-31T13:29:17;20.80;93.10
9006;DHT22;62284;50.702;7.140;2022-10-31T13:31:45;20.80;92.30
9006;DHT22;62284;50.702;7.140;2022-10-31T13:34:20;20.80;92.80
9006;DHT22;62284;50.702;7.140;2022-10-31T13:36:55;20.80;92.90
9006;DHT22;62284;50.702;7.140;2022-10-31T13:39:30;20.70;92.20
9006;DHT22;62284;50.702;7.140;2022-10-31T13:42:03;20.60;92.20
9006;DHT22;62284;50.702;7.140;2022-10-31T13:44:35;20.50;92.50
9006;DHT22;62284;50.702;7.140;2022-10-31T13:47:04;20.30;92.80
9006;DHT22;62284;50.702;7.140;2022-10-31T13:49:46;20.00;93.10
9006;DHT22;62284;50.702;7.140;2022-10-31T13:52:23;19.80;93.50
9006;DHT22;62284;50.702;7.140;2022-10-31T13:54:52;19.60;94.00
9006;DHT22;62284;50.702;7.140;2022-10-31T13:57:34;19.60;94.70
9006;DHT22;62284;50.702;7.140;2022-10-31T14:00:06;19.60;94.30
9006;DHT22;62284;50.702;7.140;2022-10-31T14:02:49;19.70;94.80
9006;DHT22;62284;50.702;7.140;2022-10-31T14:05:22;19.70;94.80
9006;DHT22;62284;50.702;7.140;2022-10-31T14:07:51;19.90;94.20
9006;DHT22;62284;50.702;7.140;2022-10-31T14:10:26;19.90;94.90
9006;DHT22;62284;50.702;7.140;2022-10-31T14:13:02;19.90;94.50
9006;DHT22;62284;50.702;7.140;2022-10-31T14:15:30;19.90;94.90
9006;DHT22;62284;50.702;7.140;2022-10-31T14:17:58;19.80;95.00
9006;DHT22;62284;50.702;7.140;2022-10-31T14:20:37;19.80;95.00
9006;DHT22;62284;50.702;7.140;2022-10-31T14:23:25;19.80;95.10
9006;DHT22;62284;50.702;7.140;2022-10-31T14:26:07;19.70;95.00
9006;DHT22;62284;50.702;7.140;2022-10-31T14:28:42;19.60;95.30
9006;DHT22;62284;50.702;7.140;2022-10-31T14:31:29;19.50;95.20
9006;DHT22;62284;50.702;7.140;2022-10-31T14:33:59;19.60;95.00
9006;DHT22;62284;50.702;7.140;2022-10-31T14:36:35;19.50;95.20
9006;DHT22;62284;50.702;7.140;2022-10-31T14:39:11;19.50;95.30
9006;DHT22;62284;50.702;7.140;2022-10-31T14:41:58;19.50;95.10
9006;DHT22;62284;50.702;7.140;2022-10-31T14:44:51;19.70;94.60
9006;DHT22;62284;50.702;7.140;2022-10-31T14:47:27;19.70;94.60
9006;DHT22;62284;50.702;7.140;2022-10-31T14:50:23;19.70;94.70
9006;DHT22;62284;50.702;7.140;2022-10-31T14:52:54;19.70;94.70
9006;DHT22;62284;50.702;7.140;2022-10-31T14:55:24;19.70;94.90
9006;DHT22;62284;50.702;7.140;2022-10-31T14:57:54;19.70;94.80
9006;DHT22;62284;50.702;7.140;2022-10-31T15:00:23;19.60;94.90
9006;DHT22;62284;50.702;7.140;2022-10-31T15:03:01;19.50;95.10
9006;DHT22;62284;50.702;7.140;2022-10-31T15:05:30;19.60;94.80
9006;DHT22;62284;50.702;7.140;2022-10-31T15:07:58;19.60;94.90
9006;DHT22;62284;50.702;7.140;2022-10-31T15:10:29;19.70;94.80
9006;DHT22;62284;50.702;7.140;2022-10-31T15:13:08;19.80;94.40
9006;DHT22;62284;50.702;7.140;2022-10-31T15:15:36;19.90;94.30
9006;DHT22;62284;50.702;7.140;2022-10-31T15:18:04;19.90;94.60
9006;DHT22;62284;50.702;7.140;2022-10-31T15:20:38;19.90;94.30
9006;DHT22;62284;50.702;7.140;2022-10-31T15:23:11;19.90;94.20
9006;DHT22;62284;50.702;7.140;2022-10-31T15:25:43;19.80;94.50
9006;DHT22;62284;50.702;7.140;2022-10-31T15:28:14;19.70;94.40
9006;DHT22;62284;50.702;7.140;2022-10-31T15:30:50;19.60;94.70
9006;DHT22;62284;50.702;7.140;2022-10-31T15:33:20;19.60;94.80
9006;DHT22;62284;50.702;7.140;2022-10-31T15:35:55;19.50;94.90
9006;DHT22;62284;50.702;7.140;2022-10-31T15:38:22;19.50;95.00
9006;DHT22;62284;50.702;7.140;2022-10-31T15:40:59;19.40;95.30
9006;DHT22;62284;50.702;7.140;2022-10-31T15:43:32;19.20;95.10
9006;DHT22;62284;50.702;7.140;2022-10-31T15:46:00;19.20;95.40
9006;DHT22;62284;50.702;7.140;2022-10-31T15:48:28;19.10;95.50
9006;DHT22;62284;50.702;7.140;2022-10-31T15:50:57;19.00;95.90
9006;DHT22;62284;50.702;7.140;2022-10-31T15:53:27;18.80;96.10
9006;DHT22;62284;50.702;7.140;2022-10-31T15:56:00;18.90;96.00
9006;DHT22;62284;50.702;7.140;2022-10-31T15:58:27;18.80;96.20
9006;DHT22;62284;50.702;7.140;2022-10-31T16:00:59;18.70;96.50
9006;DHT22;62284;50.702;7.140;2022-10-31T16:03:28;18.60;96.70
9006;DHT22;62284;50.702;7.140;2022-10-31T16:05:58;18.50;97.20
9006;DHT22;62284;50.702;7.140;2022-10-31T16:08:32;18.30;97.30
9006;DHT22;62284;50.702;7.140;2022-10-31T16:11:14;18.30;97.60
9006;DHT22;62284;50.702;7.140;2022-10-31T16:13:53;18.20;97.80